Terminal Aerodrome Forecast
Issued by NWS Portland, OR

Home | Current Version | Previous Version | Text Only | Print | Product List | Glossary On
Versions: 1 2 3 4 5 6 7 8 9 10 11 12 13 14 15 16 17 18 19 20 21 22 23 24 25 26 27 28 29 30 31 32 33 34
000
FTUS46 KPQR 260104 AAA
TAFHIO
TAF AMD
KHIO 260104Z 2601/2624 15007KT 2SM -RA BKN007 BKN020 OVC025
     FM260400 19007KT P6SM -RA SCT015 OVC025
     FM261800 23010KT P6SM -SHRA OVC025=

USA.gov is the U.S. government's official web portal to all federal, state and local government web resources and services.